ADDS METAR Data INFO
IDs: Format: Raw Decoded Include TAF

Data at: 1354 UTC 17 Dec 2017

KGIC 171335Z AUTO 10003KT 10SM BKN046 OVC060 M06/M06 A3016 RMK AO1
KGIC 171315Z AUTO 13003KT 10SM OVC060 M06/M07 A3017 RMK AO1
KGIC 171300Z AUTO 00000KT 10SM OVC060 M07/M07 A3018 RMK AO1
KGIC 171235Z AUTO 12004KT 10SM OVC060 M06/M06 A3018 RMK AO1
KGIC 171215Z AUTO 14008KT 10SM OVC060 M07/M07 A3019 RMK AO1
KGIC 171155Z AUTO 22005KT 10SM BKN075 OVC090 A3020 RMK AO1
KGIC 171135Z AUTO 29003KT 7SM SCT075 OVC090 M08/M09 A3020 RMK AO1
KGIC 171115Z AUTO 11003KT 10SM OVC100 A3020 RMK AO1
KGIC 171055Z AUTO 00000KT 7SM SCT110 A3021 RMK AO1
KGIC 171035Z AUTO 00000KT 7SM SCT001 BKN120 M10/M10 A3021 RMK AO1
KGIC 171015Z AUTO 00000KT 3/4SM OVC001 M11/M12 A3021 RMK AO1
KGIC 170955Z AUTO 00000KT 1/4SM OVC001 M10/M11 A3021 RMK AO1
KGIC 170935Z AUTO 00000KT M1/4SM OVC001 M09/M10 A3020 RMK AO1
KGIC 170915Z AUTO 00000KT 1/4SM OVC001 M08/M08 A3020 RMK AO1
KGIC 170855Z AUTO 13005KT 1/4SM OVC001 M07/M07 A3020 RMK AO1
KGIC 170835Z AUTO 14010KT 1/4SM OVC003 M06/M07 A3021 RMK AO1
KGIC 170815Z AUTO 00000KT 1/2SM OVC003 M05/M06 A3021 RMK AO1
KGIC 170755Z AUTO 14008KT 1SM OVC003 M06/M06 A3021 RMK AO1
KGIC 170735Z AUTO 14003KT 1SM OVC003 M05/M05 A3021 RMK AO1
KGIC 170715Z AUTO 26005KT 1 1/4SM OVC003 M05/M05 A3021 RMK AO1
KGIC 170655Z AUTO 26005KT 1/2SM OVC003 M05/M05 A3020 RMK AO1
KGIC 170635Z AUTO 23008KT 1/4SM OVC003 M05/M06 A3021 RMK AO1
KGIC 170615Z AUTO 22008KT 1/4SM OVC003 M06/M06 A3021 RMK AO1
KGIC 170555Z AUTO 20004KT 1/2SM OVC003 M06/M07 A3022 RMK AO1
KGIC 170535Z AUTO 22008KT 1/2SM OVC003 M05/M06 A3022 RMK AO1
KGIC 170515Z AUTO 22008KT 1/2SM OVC003 M05/M05 A3021 RMK AO1
KGIC 170455Z AUTO 23006KT 3/4SM OVC003 M05/M05 A3022 RMK AO1
KGIC 170435Z AUTO 20003KT 3/4SM OVC003 M05/M05 A3022 RMK AO1
KGIC 170415Z AUTO 00000KT 3/4SM OVC003 M05/M05 A3022 RMK AO1
KGIC 170355Z AUTO 00000KT 3/4SM OVC003 M05/M05 A3022 RMK AO1
KGIC 170335Z AUTO 12004KT 2SM OVC003 M05/M05 A3022 RMK AO1
KGIC 170315Z AUTO 13004KT 3SM OVC003 M05/M05 A3023 RMK AO1
KGIC 170255Z AUTO 00000KT 3SM OVC003 M05/M05 A3023 RMK AO1
KGIC 170235Z AUTO 00000KT 3SM OVC003 M04/M04 A3022 RMK AO1
KGIC 170215Z AUTO 08003KT 5SM OVC003 M04/M04 A3022 RMK AO1
KGIC 170155Z AUTO 26003KT 3SM OVC003 M05/M05 A3022 RMK AO1
KGIC 170135Z AUTO 26005KT 1SM OVC003 M05/M05 A3022 RMK AO1
KGIC 170115Z AUTO 00000KT 3/4SM OVC003 M04/M04 A3022 RMK AO1
KGIC 170055Z AUTO 00000KT 2 1/2SM BKN003 M05/M05 A3021 RMK AO1
KGIC 170035Z AUTO 08004KT 5SM BKN003 M06/M06 A3020 RMK AO1
KGIC 170015Z AUTO 11009KT 3/4SM OVC003 M03/M03 A3019 RMK AO1
KGIC 162355Z AUTO 11011KT 5SM OVC003 M03/M03 A3020 RMK AO1
KGIC 162335Z AUTO 11010KT 5SM OVC003 M03/M03 A3020 RMK AO1
KGIC 162315Z AUTO 11009KT 5SM OVC003 M03/M03 A3020 RMK AO1
KGIC 162255Z AUTO 11009KT 5SM OVC003 M03/M03 A3020 RMK AO1
KGIC 162235Z AUTO 11008KT 7SM OVC005 M03/M03 A3020 RMK AO1
KGIC 162215Z AUTO 11008KT 10SM OVC005 M03/M03 A3019 RMK AO1
KGIC 162155Z AUTO 10007KT 10SM BKN005 OVC023 M03/M03 A3020 RMK AO1
KGIC 162135Z AUTO 09006KT 10SM SCT007 OVC023 M03/M03 A3019 RMK AO1
KGIC 162115Z AUTO 10007KT 10SM OVC021 M03/M03 A3019 RMK AO1
KGIC 162055Z AUTO 10007KT 10SM SCT007 OVC019 M03/M03 A3020 RMK AO1
KGIC 162035Z AUTO 10006KT 10SM OVC007 M03/M03 A3020 RMK AO1
KGIC 162015Z AUTO 10007KT 10SM OVC007 M03/M03 A3020 RMK AO1
KGIC 161955Z AUTO 10007KT 10SM OVC009 M03/M03 A3020 RMK AO1
KGIC 161935Z AUTO 11008KT 10SM OVC009 M03/M03 A3020 RMK AO1
KGIC 161915Z AUTO 10007KT 10SM OVC011 M03/M03 A3020 RMK AO1
KGIC 161855Z AUTO 10007KT 10SM OVC013 M03/M03 A3020 RMK AO1
KGIC 161835Z AUTO 10007KT 10SM OVC015 M03/M03 A3019 RMK AO1
KGIC 161815Z AUTO 10006KT 10SM OVC015 M03/M03 A3018 RMK AO1
KGIC 161755Z AUTO 11006KT 7SM SCT007 OVC019 M03/M03 A3018 RMK AO1
KGIC 161735Z AUTO 09005KT 1 1/4SM OVC005 M03/M03 A3017 RMK AO1
KGIC 161715Z AUTO 12008KT 1 1/2SM OVC003 M03/M03 A3016 RMK AO1
KGIC 161655Z AUTO 12009KT 1 1/4SM OVC003 M03/M03 A3016 RMK AO1
KGIC 161635Z AUTO 11009KT 1 1/4SM BKN003 BKN018 OVC028 M03/M03 A3015 RMK AO1
KGIC 161615Z AUTO 11008KT 3/4SM BKN005 OVC015 M03/M03 A3014 RMK AO1
KGIC 161555Z AUTO 11010KT 3/4SM BKN005 OVC015 M03/M03 A3013 RMK AO1
KGIC 161535Z AUTO 11008KT 2SM SCT003 SCT017 OVC028 M03/M03 A3013 RMK AO1
KGIC 161515Z AUTO 11009KT 2 1/2SM SCT003 SCT017 OVC026 M03/M03 A3012 RMK AO1
KGIC 161455Z AUTO 11010KT 2 1/2SM SCT008 OVC026 M03/M03 A3011 RMK AO1 P0001
KGIC 161435Z AUTO 11008KT 3/4SM OVC008 M03/M03 A3011 RMK AO1 P0001
KGIC 161415Z AUTO 12006KT 2SM SCT006 BKN009 OVC027 M03/M03 A3011 RMK AO1
KGIC 161355Z AUTO 11006KT 2SM OVC006 M03/M03 A3011 RMK AO1 P0001
KGIC 161335Z AUTO 10004KT 1 3/4SM BKN006 OVC011 M03/M03 A3010 RMK AO1 P0001
KGIC 161315Z AUTO 03005KT 2 1/2SM BKN004 BKN013 OVC021 M03/M03 A3010 RMK AO1 P0001
KGIC 161255Z AUTO 08004KT 2 1/2SM BKN004 OVC008 M02/M02 A3009 RMK AO1
KGIC 161235Z AUTO 09003KT 4SM OVC004 M02/M02 A3009 RMK AO1
KGIC 161220Z AUTO 10004KT 4SM OVC004 M02/M02 A3009 RMK AO1
KGIC 161155Z AUTO 00000KT 7SM OVC004 M02/M02 A3009 RMK AO1
KGIC 161135Z AUTO 13003KT 7SM OVC004 M02/M02 A3007 RMK AO1
KGIC 161115Z AUTO 00000KT 10SM BKN004 BKN024 OVC029 M02/M02 A3008 RMK AO1
KGIC 161055Z AUTO 00000KT 10SM SCT006 BKN031 OVC039 M03/M03 A3007 RMK AO1
KGIC 161035Z AUTO 07003KT 10SM SCT006 BKN033 OVC039 M03/M03 A3007 RMK AO1
KGIC 161015Z AUTO 00000KT 7SM SCT005 SCT029 OVC037 M03/M03 A3006 RMK AO1
KGIC 160955Z AUTO 13003KT 7SM BKN005 BKN033 OVC050 M02/M02 A3005 RMK AO1
KGIC 160935Z AUTO 00000KT 5SM OVC005 M02/M02 A3005 RMK AO1
KGIC 160915Z AUTO 00000KT 5SM OVC003 M02/M02 A3005 RMK AO1
KGIC 160855Z AUTO 00000KT 7SM OVC003 M02/M02 A3005 RMK AO1
KGIC 160835Z AUTO 08003KT 5SM OVC003 M02/M02 A3005 RMK AO1
KGIC 160815Z AUTO 02004KT 10SM OVC005 M02/M02 A3004 RMK AO1
KGIC 160755Z AUTO 00000KT 7SM OVC005 M02/M02 A3004 RMK AO1
KGIC 160735Z AUTO 00000KT 5SM SCT005 OVC015 M02/M02 A3004 RMK AO1
KGIC 160715Z AUTO 00000KT 4SM SCT006 BKN013 OVC020 M02/M02 A3004 RMK AO1
KGIC 160655Z AUTO 00000KT 5SM BKN006 BKN011 OVC024 M02/M02 A3003 RMK AO1
KGIC 160635Z AUTO 00000KT 4SM SCT006 SCT014 OVC024 M02/M02 A3003 RMK AO1
KGIC 160615Z AUTO 00000KT 3SM SCT006 OVC016 M02/M02 A3004 RMK AO1
KGIC 160555Z AUTO 00000KT 10SM BKN006 OVC014 M02/M02 A3003 RMK AO1
KGIC 160535Z AUTO 00000KT 7SM SCT003 OVC008 M02/M02 A3004 RMK AO1
KGIC 160515Z AUTO 00000KT 2 1/2SM OVC008 M02/M02 A3004 RMK AO1
KGIC 160455Z AUTO 07003KT 2 1/2SM OVC008 M02/M02 A3003 RMK AO1 P0002
KGIC 160435Z AUTO 00000KT 2 1/2SM OVC008 M02/M02 A3003 RMK AO1 P0001
KGIC 160415Z AUTO 00000KT 2SM OVC008 M02/M02 A3003 RMK AO1 P0001
KGIC 160355Z AUTO 00000KT 2 1/2SM BKN008 OVC019 M02/M02 A3003 RMK AO1 P0001
KGIC 160335Z AUTO 00000KT 2 1/2SM OVC008 M02/M02 A3003 RMK AO1 P0001
KGIC 160315Z AUTO 00000KT 2SM OVC006 M02/M02 A3004 RMK AO1
KGIC 160255Z AUTO 10004KT 2SM OVC006 M02/M02 A3004 RMK AO1 P0001
KGIC 160235Z AUTO 10006KT 2SM OVC004 M02/M02 A3004 RMK AO1
KGIC 160215Z AUTO 09006KT 2SM OVC004 M02/M02 A3004 RMK AO1
KGIC 160155Z AUTO 09006KT 1 1/2SM OVC004 M01/M01 A3003 RMK AO1 P0001